Time;durP1;ratioP1;P1;durP2;ratioP2;P2;SDS_P1;SDS_P2;PMS_P1;PMS_P2;Temp;Humidity;BMP_temperature;BMP_pressure;BME280_temperature;BME280_humidity;BME280_pressure;Samples;Min_cycle;Max_cycle;Signal;HPM_P1;HPM_P2
2024/01/18 00:02:16;;;;;;;32.08;19.52;;;-1.60;99.90;-2.60;97482;;;;558737;249;46301;-80
2024/01/18 00:04:44;;;;;;;3.50;2.67;;;-1.60;99.90;-2.60;97490;;;;575159;249;24107;-80
2024/01/18 00:07:15;;;;;;;10.60;4.63;;;-1.50;99.90;-2.60;97487;;;;566195;249;24103;-80
2024/01/18 00:09:43;;;;;;;7.07;2.20;;;-1.60;99.90;-2.60;97487;;;;564326;249;24103;-78
2024/01/18 00:12:15;;;;;;;11.20;7.03;;;-1.50;99.90;-2.60;97483;;;;566097;249;24087;-79
2024/01/18 00:14:46;;;;;;;14.47;10.20;;;-1.50;99.90;-2.60;97484;;;;566055;249;24134;-79
2024/01/18 00:17:10;;;;;;;16.70;11.67;;;-1.50;99.90;-2.60;97486;;;;567431;249;24098;-78
2024/01/18 00:19:38;;;;;;;20.03;13.13;;;-1.50;99.90;-2.60;97489;;;;564279;249;24102;-80
2024/01/18 00:22:06;;;;;;;18.33;11.63;;;-1.50;99.90;-2.60;97486;;;;564228;249;24125;-80
2024/01/18 00:24:34;;;;;;;20.47;11.83;;;-1.50;99.90;-2.60;97496;;;;564062;249;24073;-79
2024/01/18 00:27:02;;;;;;;15.30;9.47;;;-1.50;99.90;-2.60;97495;;;;563813;249;24146;-80
2024/01/18 00:29:31;;;;;;;14.00;9.73;;;-1.50;99.90;-2.60;97491;;;;565129;249;24103;-81
2024/01/18 00:31:58;;;;;;;12.47;9.20;;;-1.40;99.90;-2.60;97492;;;;565200;249;24091;-80
2024/01/18 00:34:26;;;;;;;12.43;8.07;;;-1.40;99.90;-2.50;97497;;;;563464;249;24143;-79
2024/01/18 00:36:54;;;;;;;9.87;7.67;;;-1.40;99.90;-2.50;97505;;;;563451;249;24115;-80
2024/01/18 00:39:24;;;;;;;12.60;8.60;;;-1.40;99.90;-2.50;97495;;;;565276;249;24114;-79
2024/01/18 00:41:50;;;;;;;16.47;11.00;;;-1.40;99.90;-2.50;97499;;;;565036;249;24089;-80
2024/01/18 00:44:18;;;;;;;13.67;8.13;;;-1.40;99.90;-2.50;97495;;;;563812;249;24080;-79
2024/01/18 00:46:46;;;;;;;15.70;9.70;;;-1.40;99.90;-2.50;97501;;;;563631;249;24091;-79
2024/01/18 00:49:14;;;;;;;14.40;8.90;;;-1.40;99.90;-2.50;97493;;;;573753;249;24116;-80
2024/01/18 00:51:42;;;;;;;18.73;8.83;;;-1.40;99.90;-2.50;97485;;;;563645;249;24083;-79
2024/01/18 00:54:10;;;;;;;11.93;7.50;;;-1.40;99.90;-2.50;97489;;;;565312;249;24125;-78
2024/01/18 00:56:38;;;;;;;13.63;9.77;;;-1.40;99.90;-2.40;97492;;;;563589;249;24156;-79
2024/01/18 00:59:06;;;;;;;13.33;9.00;;;-1.30;99.90;-2.40;97492;;;;565207;249;24065;-79
2024/01/18 01:01:34;;;;;;;17.60;10.43;;;-1.30;99.90;-2.40;97496;;;;563732;249;24104;-80
2024/01/18 01:04:02;;;;;;;13.80;9.27;;;-1.30;99.90;-2.40;97491;;;;563776;249;24091;-79
2024/01/18 01:06:30;;;;;;;5.57;2.30;;;-1.30;99.90;-2.40;97494;;;;563258;249;24093;-79
2024/01/18 01:08:59;;;;;;;3.17;1.37;;;-1.30;99.90;-2.40;97498;;;;563465;249;24130;-79
2024/01/18 01:11:26;;;;;;;13.93;7.15;;;-1.30;99.90;-2.40;97492;;;;559955;249;35242;-81
2024/01/18 01:13:54;;;;;;;2.97;2.00;;;-1.30;99.90;-2.40;97487;;;;565249;249;24131;-80
2024/01/18 01:16:22;;;;;;;0.50;0.50;;;-1.30;99.90;-2.40;97490;;;;565296;249;24131;-80
2024/01/18 01:18:50;;;;;;;1.27;0.83;;;-1.30;99.90;-2.30;97496;;;;565050;249;25113;-79
2024/01/18 01:21:18;;;;;;;1.57;1.47;;;-1.20;99.90;-2.30;97493;;;;566282;249;24079;-80
2024/01/18 01:23:48;;;;;;;1.43;1.10;;;-1.20;99.90;-2.30;97497;;;;566024;249;24125;-79
2024/01/18 01:26:14;;;;;;;1.03;1.03;;;-1.20;99.90;-2.30;97495;;;;565941;248;24177;-79
2024/01/18 01:28:41;;;;;;;1.13;1.07;;;-1.20;99.90;-2.30;97496;;;;565313;249;24080;-81
2024/01/18 01:31:09;;;;;;;1.17;1.17;;;-1.20;99.90;-2.30;97484;;;;565459;249;24117;-81
2024/01/18 01:33:38;;;;;;;2.30;1.33;;;-1.20;99.90;-2.30;97486;;;;567016;249;24083;-76
2024/01/18 01:36:12;;;;;;;8.37;4.97;;;-1.20;99.90;-2.30;97482;;;;564127;249;24120;-80
2024/01/18 01:38:37;;;;;;;11.87;5.17;;;-1.20;99.90;-2.30;97476;;;;565418;249;24092;-80
2024/01/18 01:41:08;;;;;;;0.97;0.97;;;-1.20;99.90;-2.30;97482;;;;565531;249;24112;-80
2024/01/18 01:43:36;;;;;;;9.70;3.50;;;-1.20;99.90;-2.30;97475;;;;563674;249;24085;-80
2024/01/18 01:46:03;;;;;;;2.50;1.13;;;-1.20;99.90;-2.30;97474;;;;565209;249;24108;-79
2024/01/18 01:48:31;;;;;;;3.37;1.60;;;-1.20;99.90;-2.30;97473;;;;565290;249;24076;-81
2024/01/18 01:50:59;;;;;;;2.87;1.73;;;-1.20;99.90;-2.30;97470;;;;565242;249;24078;-79
2024/01/18 01:53:27;;;;;;;2.57;2.40;;;-1.20;99.90;-2.30;97467;;;;565324;249;24124;-80
2024/01/18 01:55:55;;;;;;;9.37;4.27;;;-1.20;99.90;-2.30;97465;;;;564987;249;24161;-81
2024/01/18 01:58:23;;;;;;;2.17;1.63;;;-1.20;99.90;-2.30;97480;;;;564824;249;24126;-79
2024/01/18 02:00:54;;;;;;;2.77;1.77;;;-1.20;99.90;-2.30;97481;;;;563310;249;24079;-80
2024/01/18 02:03:19;;;;;;;12.47;5.23;;;-1.20;99.90;-2.20;97482;;;;575027;249;24111;-78
2024/01/18 02:05:47;;;;;;;7.30;3.50;;;-1.20;99.90;-2.30;97486;;;;563399;249;24119;-80
2024/01/18 02:08:15;;;;;;;5.87;4.23;;;-1.20;99.90;-2.30;97479;;;;563731;249;24141;-80
2024/01/18 02:10:43;;;;;;;5.30;3.53;;;-1.20;99.90;-2.30;97481;;;;563830;249;24064;-80
2024/01/18 02:13:11;;;;;;;10.43;5.90;;;-1.20;99.90;-2.30;97484;;;;563669;249;24105;-80
2024/01/18 02:15:42;;;;;;;15.90;9.70;;;-1.20;99.90;-2.30;97477;;;;563388;249;24135;-80
2024/01/18 02:18:07;;;;;;;18.87;12.50;;;-1.20;99.90;-2.30;97486;;;;563548;249;24150;-80
2024/01/18 02:20:36;;;;;;;19.70;12.50;;;-1.20;99.90;-2.30;97480;;;;566940;249;24137;-79
2024/01/18 02:23:05;;;;;;;12.93;8.60;;;-1.20;99.90;-2.30;97488;;;;563810;249;24138;-79
2024/01/18 02:25:32;;;;;;;16.93;11.13;;;-1.20;99.90;-2.30;97498;;;;566962;249;24139;-79
2024/01/18 02:28:00;;;;;;;15.60;9.87;;;-1.20;99.90;-2.30;97496;;;;563292;249;24106;-79
2024/01/18 02:30:28;;;;;;;16.77;10.87;;;-1.20;99.90;-2.30;97505;;;;566671;249;24076;-80
2024/01/18 02:32:56;;;;;;;21.98;12.23;;;-1.20;99.90;-2.30;97505;;;;559890;249;46373;-78
2024/01/18 02:35:24;;;;;;;1.77;1.57;;;-1.20;99.90;-2.30;97505;;;;564740;249;24116;-79
2024/01/18 02:37:55;;;;;;;1.00;1.00;;;-1.20;99.90;-2.30;97500;;;;564540;249;24091;-78
2024/01/18 02:40:24;;;;;;;0.70;0.70;;;-1.20;99.90;-2.20;97501;;;;567010;249;24088;-81
2024/01/18 02:42:48;;;;;;;1.03;1.00;;;-1.10;99.90;-2.20;97504;;;;563916;249;24102;-80
2024/01/18 02:45:16;;;;;;;0.90;0.80;;;-1.10;99.90;-2.20;97500;;;;565945;249;24135;-77
2024/01/18 02:47:44;;;;;;;3.83;2.60;;;-1.10;99.90;-2.20;97517;;;;576244;249;24147;-78
2024/01/18 02:50:12;;;;;;;2.83;1.43;;;-1.10;99.90;-2.20;97519;;;;565957;249;24068;-79
2024/01/18 02:52:39;;;;;;;3.43;2.90;;;-1.10;99.90;-2.20;97522;;;;566123;249;24096;-79
2024/01/18 02:55:07;;;;;;;8.30;4.17;;;-1.10;99.90;-2.20;97526;;;;566234;249;24072;-78
2024/01/18 02:57:36;;;;;;;15.70;10.43;;;-1.10;99.90;-2.20;97525;;;;574472;249;24091;-79
2024/01/18 03:00:04;;;;;;;14.37;9.50;;;-1.10;99.90;-2.20;97511;;;;564376;249;25188;-79
2024/01/18 03:02:32;;;;;;;12.63;9.43;;;-1.10;99.90;-2.20;97505;;;;576473;249;24072;-78
2024/01/18 03:05:00;;;;;;;13.33;9.07;;;-1.10;99.90;-2.20;97505;;;;565694;249;24098;-79
2024/01/18 03:07:29;;;;;;;16.97;11.33;;;-1.20;99.90;-2.30;97503;;;;565327;249;24092;-79
2024/01/18 03:09:56;;;;;;;21.07;13.83;;;-1.20;99.90;-2.30;97509;;;;575373;249;24307;-78
2024/01/18 03:12:24;;;;;;;20.20;11.80;;;-1.20;99.90;-2.30;97497;;;;567235;249;24085;-79
2024/01/18 03:14:52;;;;;;;22.70;13.10;;;-1.20;99.90;-2.30;97503;;;;563927;249;24165;-78
2024/01/18 03:17:20;;;;;;;24.47;15.10;;;-1.30;99.90;-2.30;97498;;;;564423;249;24095;-80
2024/01/18 03:19:49;;;;;;;18.20;10.73;;;-1.30;99.90;-2.30;97495;;;;563714;249;24097;-79
2024/01/18 03:22:17;;;;;;;22.97;15.60;;;-1.30;99.90;-2.30;97496;;;;563697;249;24117;-80
2024/01/18 03:24:45;;;;;;;17.77;12.87;;;-1.30;99.90;-2.40;97497;;;;563516;249;24092;-79
2024/01/18 03:27:16;;;;;;;23.90;15.07;;;-1.30;99.90;-2.40;97488;;;;563303;249;24113;-81
2024/01/18 03:29:44;;;;;;;23.90;15.27;;;-1.30;99.90;-2.40;97501;;;;563703;249;24084;-79
2024/01/18 03:32:12;;;;;;;25.30;16.87;;;-1.40;99.90;-2.40;97493;;;;563736;249;24106;-80
2024/01/18 03:34:39;;;;;;;20.27;14.43;;;-1.40;99.90;-2.40;97502;;;;563670;249;24073;-79
2024/01/18 03:37:08;;;;;;;24.83;15.40;;;-1.40;99.90;-2.40;97514;;;;563714;249;24159;-81
2024/01/18 03:39:37;;;;;;;22.70;15.23;;;-1.50;99.90;-2.50;97512;;;;575034;249;24152;-79
2024/01/18 03:42:05;;;;;;;24.13;16.37;;;-1.50;99.90;-2.50;97512;;;;564750;249;24094;-80
2024/01/18 03:44:34;;;;;;;30.67;19.00;;;-1.50;99.90;-2.50;97516;;;;564325;249;24081;-80
2024/01/18 03:47:02;;;;;;;25.03;16.70;;;-1.60;99.90;-2.60;97521;;;;567734;249;24150;-81
2024/01/18 03:49:30;;;;;;;24.00;15.17;;;-1.60;99.90;-2.60;97527;;;;564411;249;24165;-80
2024/01/18 03:51:58;;;;;;;28.57;18.73;;;-1.60;99.90;-2.60;97513;;;;564236;249;24113;-80
2024/01/18 03:54:26;;;;;;;24.37;16.03;;;-1.60;99.90;-2.60;97517;;;;564298;249;24073;-81
2024/01/18 03:56:55;;;;;;;25.57;16.57;;;-1.60;99.90;-2.60;97520;;;;564188;249;24091;-80
2024/01/18 03:59:23;;;;;;;33.47;22.73;;;-1.60;99.90;-2.60;97533;;;;564043;249;25252;-81
2024/01/18 04:01:52;;;;;;;28.93;18.53;;;-1.70;99.90;-2.70;97545;;;;563926;249;24095;-80
2024/01/18 04:04:19;;;;;;;30.70;20.87;;;-1.70;99.90;-2.70;97526;;;;563925;249;24100;-80
2024/01/18 04:06:50;;;;;;;28.70;17.93;;;-1.70;99.90;-2.70;97536;;;;563979;249;24108;-80
2024/01/18 04:09:18;;;;;;;29.37;18.43;;;-1.80;99.90;-2.80;97532;;;;564050;249;24104;-79
2024/01/18 04:11:43;;;;;;;30.87;19.63;;;-1.80;99.90;-2.90;97531;;;;563469;249;24113;-81
2024/01/18 04:14:11;;;;;;;39.00;24.43;;;-1.90;99.90;-3.00;97532;;;;575471;249;24096;-80
2024/01/18 04:16:39;;;;;;;37.23;24.07;;;-2.00;99.90;-3.10;97529;;;;563880;249;24081;-79
2024/01/18 04:19:06;;;;;;;42.10;24.73;;;-2.20;99.90;-3.20;97541;;;;563805;249;24121;-80
2024/01/18 04:21:39;;;;;;;43.00;23.23;;;-2.30;99.90;-3.30;97541;;;;563827;249;24119;-79
2024/01/18 04:24:06;;;;;;;38.50;24.63;;;-2.30;99.90;-3.40;97540;;;;563862;249;24113;-80
2024/01/18 04:26:33;;;;;;;38.77;24.57;;;-2.40;99.90;-3.40;97551;;;;563635;249;24159;-79
2024/01/18 04:28:58;;;;;;;44.60;24.70;;;-2.50;99.90;-3.50;97543;;;;563793;249;24105;-81
2024/01/18 04:31:26;;;;;;;32.07;19.77;;;-2.50;99.90;-3.60;97538;;;;563693;249;24072;-81
2024/01/18 04:33:59;;;;;;;30.73;19.73;;;-2.60;99.90;-3.60;97553;;;;563725;249;24098;-80
2024/01/18 04:36:23;;;;;;;25.03;18.30;;;-2.60;99.90;-3.70;97549;;;;566198;249;24084;-80
2024/01/18 04:38:51;;;;;;;39.77;22.70;;;-2.60;99.90;-3.70;97554;;;;563755;249;24129;-80
2024/01/18 04:41:19;;;;;;;35.63;21.93;;;-2.70;99.90;-3.70;97559;;;;575246;249;24121;-79
2024/01/18 04:43:47;;;;;;;40.03;24.57;;;-2.70;99.90;-3.70;97558;;;;563299;249;24119;-80
2024/01/18 04:46:15;;;;;;;42.37;22.87;;;-2.70;99.90;-3.70;97563;;;;563418;249;24087;-79
2024/01/18 04:48:44;;;;;;;32.70;22.60;;;-2.70;99.90;-3.70;97565;;;;565801;249;24110;-79
2024/01/18 04:51:11;;;;;;;37.73;21.40;;;-2.70;99.90;-3.80;97566;;;;569271;249;24119;-79
2024/01/18 04:53:39;;;;;;;26.97;17.30;;;-2.80;99.90;-3.80;97571;;;;563438;251;24146;-81
2024/01/18 04:56:07;;;;;;;28.97;18.97;;;-2.80;99.90;-3.90;97561;;;;567921;249;24097;-80
2024/01/18 04:58:36;;;;;;;30.20;19.63;;;-2.80;99.90;-4.00;97563;;;;563964;254;24165;-81
2024/01/18 05:01:03;;;;;;;31.50;20.27;;;-2.90;99.90;-4.00;97569;;;;564357;249;24156;-79
2024/01/18 05:03:31;;;;;;;23.73;16.20;;;-2.90;99.90;-4.10;97572;;;;564065;249;24095;-80
2024/01/18 05:05:58;;;;;;;28.50;17.03;;;-3.00;99.90;-4.10;97573;;;;564288;249;24130;-79
2024/01/18 05:08:26;;;;;;;25.97;18.37;;;-3.00;99.90;-4.00;97577;;;;564095;249;24131;-80
2024/01/18 05:10:54;;;;;;;32.17;20.40;;;-3.00;99.90;-3.90;97572;;;;564109;249;24080;-79
2024/01/18 05:13:22;;;;;;;30.37;19.07;;;-2.90;99.90;-3.80;97581;;;;575389;249;24142;-78
2024/01/18 05:15:50;;;;;;;26.63;16.70;;;-2.80;99.90;-3.70;97578;;;;563683;249;24076;-80
2024/01/18 05:18:18;;;;;;;33.80;18.90;;;-2.70;99.90;-3.70;97582;;;;564130;249;24096;-79
2024/01/18 05:20:46;;;;;;;34.63;21.87;;;-2.60;99.90;-3.60;97579;;;;567178;249;24109;-79
2024/01/18 05:23:14;;;;;;;35.47;21.30;;;-2.50;99.90;-3.50;97581;;;;564097;249;24118;-79
2024/01/18 05:25:42;;;;;;;35.90;22.53;;;-2.50;99.90;-3.50;97584;;;;564327;249;24078;-78
2024/01/18 05:28:11;;;;;;;30.80;17.47;;;-2.40;99.90;-3.40;97582;;;;564307;249;24132;-77
2024/01/18 05:30:38;;;;;;;35.13;22.17;;;-2.30;99.90;-3.40;97579;;;;564173;249;25537;-78
2024/01/18 05:33:06;;;;;;;31.57;18.40;;;-2.30;99.90;-3.40;97579;;;;565173;249;24123;-80
2024/01/18 05:35:33;;;;;;;32.67;21.80;;;-2.30;99.90;-3.40;97587;;;;564539;249;24098;-80
2024/01/18 05:38:01;;;;;;;36.47;22.17;;;-2.30;99.90;-3.30;97590;;;;564421;249;24168;-79
2024/01/18 05:40:29;;;;;;;41.00;24.77;;;-2.30;99.90;-3.30;97590;;;;576257;249;24172;-80
2024/01/18 05:42:57;;;;;;;38.88;26.98;;;-2.30;99.90;-3.30;97599;;;;570772;249;35284;-79
2024/01/18 05:45:26;;;;;;;6.90;5.63;;;-2.20;99.90;-3.30;97596;;;;563621;249;25173;-79
2024/01/18 05:47:54;;;;;;;26.87;15.40;;;-2.10;99.90;-3.20;97602;;;;560628;249;35261;-78
2024/01/18 05:50:23;;;;;;;8.83;5.80;;;-2.10;99.90;-3.20;97603;;;;563887;249;24115;-79
2024/01/18 05:52:50;;;;;;;8.73;6.53;;;-2.10;99.90;-3.10;97607;;;;565310;249;24135;-81
2024/01/18 05:55:18;;;;;;;7.90;4.43;;;-2.00;99.90;-3.10;97603;;;;565375;249;24101;-79
2024/01/18 05:57:48;;;;;;;13.43;10.33;;;-2.00;99.90;-3.10;97601;;;;565345;249;24135;-79
2024/01/18 06:00:17;;;;;;;29.67;18.10;;;-2.00;99.90;-3.20;97619;;;;563561;249;24095;-80
2024/01/18 06:02:42;;;;;;;37.33;21.80;;;-2.20;99.90;-3.30;97606;;;;563596;249;24085;-80
2024/01/18 06:05:11;;;;;;;36.60;23.63;;;-2.30;99.90;-3.40;97602;;;;565118;249;24129;-79
2024/01/18 06:07:40;;;;;;;36.83;22.93;;;-2.40;99.90;-3.50;97601;;;;564756;249;24140;-79
2024/01/18 06:10:08;;;;;;;32.30;22.00;;;-2.50;99.90;-3.50;97613;;;;564503;249;24088;-80
2024/01/18 06:12:36;;;;;;;33.10;20.97;;;-2.50;99.90;-3.60;97612;;;;576302;249;24144;-79
2024/01/18 06:15:04;;;;;;;33.60;22.20;;;-2.50;99.90;-3.60;97615;;;;575850;249;24106;-79
2024/01/18 06:17:33;;;;;;;35.37;22.80;;;-2.70;99.90;-3.70;97620;;;;575652;249;24191;-79
2024/01/18 06:20:02;;;;;;;35.23;23.07;;;-2.70;99.90;-3.80;97622;;;;564060;249;24153;-79
2024/01/18 06:22:30;;;;;;;38.17;23.63;;;-2.80;99.90;-3.80;97616;;;;563955;249;24111;-80
2024/01/18 06:24:59;;;;;;;37.13;21.97;;;-2.80;99.90;-3.80;97620;;;;563903;249;24086;-79
2024/01/18 06:27:27;;;;;;;36.23;22.90;;;-2.80;99.90;-3.90;97625;;;;563634;249;24210;-81
2024/01/18 06:29:55;;;;;;;40.67;23.93;;;-2.90;99.90;-3.90;97632;;;;563615;249;24219;-80
2024/01/18 06:32:23;;;;;;;39.40;24.13;;;-2.90;99.90;-3.90;97634;;;;563679;249;24155;-79
2024/01/18 06:34:51;;;;;;;27.17;16.48;;;-2.90;99.90;-4.00;97637;;;;558682;249;35341;-80
2024/01/18 06:37:18;;;;;;;19.93;11.37;;;-3.00;99.90;-4.00;97626;;;;563970;249;24082;-80
2024/01/18 06:39:46;;;;;;;43.57;24.23;;;-3.00;99.90;-4.00;97633;;;;563567;249;24087;-79
2024/01/18 06:42:16;;;;;;;44.53;25.83;;;-3.00;99.90;-4.00;97637;;;;563272;249;24191;-80
2024/01/18 06:44:46;;;;;;;40.93;24.50;;;-3.00;99.90;-4.00;97642;;;;563283;249;24137;-81
2024/01/18 06:47:14;;;;;;;40.43;24.47;;;-3.00;99.90;-4.10;97641;;;;563380;249;24127;-81
2024/01/18 06:49:45;;;;;;;43.00;25.40;;;-3.00;99.90;-4.10;97643;;;;563485;249;24093;-79
2024/01/18 06:52:10;;;;;;;28.30;19.20;;;-3.10;99.90;-4.10;97653;;;;563602;249;24076;-78
2024/01/18 06:54:37;;;;;;;40.70;24.67;;;-3.10;99.90;-4.20;97650;;;;563716;249;24127;-80
2024/01/18 06:57:09;;;;;;;43.57;25.10;;;-3.10;99.90;-4.20;97664;;;;566981;249;24106;-79
2024/01/18 06:59:33;;;;;;;41.87;24.63;;;-3.20;99.90;-4.20;97666;;;;575544;249;24099;-79
2024/01/18 07:02:02;;;;;;;40.33;25.60;;;-3.20;99.90;-4.30;97655;;;;563779;249;24104;-80
2024/01/18 07:04:29;;;;;;;37.43;23.50;;;-3.20;99.90;-4.30;97658;;;;563714;249;24080;-80
2024/01/18 07:06:57;;;;;;;31.90;20.27;;;-3.20;99.90;-4.30;97658;;;;563788;249;24069;-80
2024/01/18 07:09:25;;;;;;;34.60;23.97;;;-3.30;99.90;-4.40;97664;;;;563770;249;24129;-77
2024/01/18 07:11:53;;;;;;;32.93;22.33;;;-3.30;99.90;-4.40;97662;;;;563760;249;24154;-79
2024/01/18 07:14:21;;;;;;;35.97;23.37;;;-3.30;99.90;-4.40;97675;;;;563690;249;24180;-79
2024/01/18 07:16:49;;;;;;;36.77;22.60;;;-3.40;99.90;-4.40;97678;;;;576588;247;24091;-80
2024/01/18 07:19:18;;;;;;;37.13;22.90;;;-3.40;99.90;-4.40;97681;;;;564490;249;24126;-80
2024/01/18 07:21:47;;;;;;;34.55;23.27;;;-3.40;99.90;-4.40;97687;;;;559602;249;35315;-80
2024/01/18 07:24:15;;;;;;;28.23;16.97;;;-3.40;99.90;-4.50;97692;;;;564487;249;24186;-79
2024/01/18 07:26:43;;;;;;;38.03;22.47;;;-3.40;99.90;-4.40;97694;;;;564105;249;24110;-79
2024/01/18 07:29:11;;;;;;;26.57;17.60;;;-3.40;99.90;-4.50;97691;;;;563852;249;24093;-80
2024/01/18 07:31:39;;;;;;;36.27;21.73;;;-3.40;99.90;-4.50;97689;;;;563974;249;24077;-79
2024/01/18 07:34:06;;;;;;;34.93;23.30;;;-3.40;99.90;-4.40;97689;;;;563645;249;24125;-79
2024/01/18 07:36:34;;;;;;;36.23;22.77;;;-3.40;99.90;-4.40;97693;;;;563855;249;24113;-80
2024/01/18 07:39:02;;;;;;;28.03;18.90;;;-3.40;99.90;-4.50;97704;;;;563590;249;24119;-78
2024/01/18 07:41:30;;;;;;;33.47;22.67;;;-3.40;99.90;-4.50;97705;;;;563528;249;24184;-79
2024/01/18 07:43:58;;;;;;;28.93;18.63;;;-3.40;99.90;-4.50;97704;;;;563612;249;24096;-80
2024/01/18 07:46:26;;;;;;;32.17;20.77;;;-3.40;99.90;-4.50;97707;;;;563501;249;24162;-78
2024/01/18 07:48:54;;;;;;;36.13;20.77;;;-3.40;99.90;-4.40;97712;;;;563769;249;24086;-80
2024/01/18 07:51:22;;;;;;;24.57;16.73;;;-3.40;99.90;-4.40;97716;;;;563475;249;24126;-79
2024/01/18 07:53:50;;;;;;;26.70;19.20;;;-3.40;99.90;-4.40;97727;;;;563688;249;24135;-80
2024/01/18 07:56:18;;;;;;;25.40;16.90;;;-3.40;99.90;-4.40;97727;;;;563653;249;24130;-79
2024/01/18 07:58:49;;;;;;;26.67;18.60;;;-3.30;99.90;-4.40;97729;;;;563777;249;24097;-81
2024/01/18 08:01:13;;;;;;;28.03;17.37;;;-3.30;99.90;-4.40;97718;;;;566909;249;25202;-79
2024/01/18 08:03:41;;;;;;;23.67;15.67;;;-3.30;99.90;-4.40;97728;;;;563465;249;24085;-78
2024/01/18 08:06:11;;;;;;;26.43;16.83;;;-3.30;99.90;-4.30;97730;;;;563779;249;24134;-80
2024/01/18 08:08:42;;;;;;;26.27;15.60;;;-3.20;99.90;-4.30;97736;;;;563509;249;25131;-79
2024/01/18 08:11:11;;;;;;;24.87;15.73;;;-3.30;99.90;-4.40;97733;;;;563913;249;24156;-79
2024/01/18 08:13:38;;;;;;;26.47;16.57;;;-3.20;99.90;-4.30;97743;;;;565277;254;24130;-81
2024/01/18 08:16:09;;;;;;;19.33;13.07;;;-3.20;99.90;-4.30;97741;;;;554904;254;24111;-79
2024/01/18 08:18:37;;;;;;;24.40;14.93;;;-3.20;99.90;-4.30;97748;;;;553572;254;24127;-80
2024/01/18 08:21:05;;;;;;;24.70;15.97;;;-3.20;99.90;-4.20;97758;;;;563132;249;24094;-81
2024/01/18 08:23:32;;;;;;;28.93;17.63;;;-3.10;99.90;-4.20;97757;;;;564553;249;24112;-81
2024/01/18 08:26:00;;;;;;;23.00;15.83;;;-3.10;99.90;-4.10;97774;;;;572960;249;24100;-80
2024/01/18 08:28:28;;;;;;;21.40;15.33;;;-3.10;99.90;-4.00;97779;;;;568033;249;24155;-80
2024/01/18 08:30:57;;;;;;;22.43;16.40;;;-3.00;99.90;-3.90;97770;;;;564488;249;24113;-79
2024/01/18 08:33:24;;;;;;;23.33;15.67;;;-2.90;99.90;-3.80;97769;;;;564012;249;24088;-81
2024/01/18 08:35:52;;;;;;;28.23;17.13;;;-2.70;99.90;-3.70;97776;;;;564101;249;24108;-79
2024/01/18 08:38:20;;;;;;;15.40;11.60;;;-2.60;99.90;-3.50;97791;;;;563916;249;24079;-79
2024/01/18 08:40:48;;;;;;;14.77;11.27;;;-2.50;99.90;-3.40;97801;;;;564035;249;24148;-81
2024/01/18 08:43:19;;;;;;;21.10;14.53;;;-2.30;99.90;-3.20;97799;;;;563923;249;24116;-80
2024/01/18 08:45:44;;;;;;;13.13;10.20;;;-2.00;99.90;-3.00;97800;;;;563610;249;24225;-80
2024/01/18 08:48:13;;;;;;;13.53;9.70;;;-1.70;99.90;-2.80;97805;;;;575395;249;24085;-79
2024/01/18 08:50:46;;;;;;;12.97;9.47;;;-1.40;99.90;-2.50;97811;;;;565158;249;25205;-79
2024/01/18 08:53:13;;;;;;;12.47;8.73;;;-1.40;99.90;-2.20;97818;;;;565120;249;24132;-80
2024/01/18 08:55:38;;;;;;;9.80;6.73;;;-1.10;99.90;-1.90;97814;;;;563832;249;24088;-80
2024/01/18 08:58:09;;;;;;;6.47;4.40;;;-0.80;99.90;-1.50;97815;;;;565482;249;24117;-80
2024/01/18 09:00:38;;;;;;;5.60;3.30;;;-0.40;99.90;-1.20;97820;;;;565536;249;24084;-80
2024/01/18 09:03:05;;;;;;;1.53;1.53;;;0.10;99.90;-1.00;97834;;;;565349;249;24136;-78
2024/01/18 09:05:33;;;;;;;4.13;2.27;;;0.10;99.90;-0.80;97836;;;;566958;249;24166;-80
2024/01/18 09:08:01;;;;;;;4.43;2.83;;;0.30;99.90;-0.50;97837;;;;565307;249;24135;-80
2024/01/18 09:10:29;;;;;;;1.50;1.20;;;0.50;99.90;-0.40;97844;;;;565852;249;24092;-80
2024/01/18 09:13:00;;;;;;;3.40;3.13;;;0.70;99.90;-0.30;97853;;;;565805;249;24122;-79
2024/01/18 09:15:28;;;;;;;3.23;2.97;;;0.80;99.90;-0.40;97852;;;;565710;249;24085;-79
2024/01/18 09:18:00;;;;;;;11.82;7.70;;;0.70;99.90;-0.40;97867;;;;560771;249;35241;-76
2024/01/18 09:20:24;;;;;;;9.00;5.90;;;0.70;99.90;-0.50;97859;;;;563346;249;24222;-79
2024/01/18 09:22:52;;;;;;;7.50;3.73;;;0.60;99.90;-0.50;97872;;;;565395;249;24139;-77
2024/01/18 09:25:20;;;;;;;2.30;2.10;;;0.60;99.90;-0.40;97877;;;;565655;249;24101;-80
2024/01/18 09:27:48;;;;;;;6.40;2.17;;;0.70;99.90;-0.30;97875;;;;563440;249;24208;-78
2024/01/18 09:30:16;;;;;;;2.67;1.50;;;0.80;99.90;-0.20;97878;;;;565091;249;24116;-81
2024/01/18 09:32:44;;;;;;;3.13;1.70;;;0.90;99.90;-0.10;97884;;;;563418;249;24098;-79
2024/01/18 09:35:12;;;;;;;1.70;1.60;;;1.10;99.90;0.00;97899;;;;565024;249;24127;-80
2024/01/18 09:37:39;;;;;;;2.93;0.83;;;1.20;99.90;0.10;97894;;;;565039;249;24173;-79
2024/01/18 09:40:11;;;;;;;1.33;1.23;;;1.30;99.90;0.20;97886;;;;568401;249;24108;-79
2024/01/18 09:42:39;;;;;;;1.93;1.10;;;1.40;99.90;0.20;97898;;;;576225;249;24122;-80
2024/01/18 09:45:07;;;;;;;0.83;0.83;;;1.50;99.90;0.20;97888;;;;558170;254;24119;-80
2024/01/18 09:47:35;;;;;;;3.23;1.00;;;1.40;99.90;0.20;97889;;;;553408;255;24151;-77
2024/01/18 09:50:03;;;;;;;1.73;1.63;;;1.40;99.90;0.10;97899;;;;566981;253;25213;-80
2024/01/18 09:55:11;;;;;;;3.70;2.30;;;1.30;99.90;0.10;97889;;;;565971;252;24138;-78
2024/01/18 09:57:41;;;;;;;1.43;1.13;;;1.30;99.90;0.00;97905;;;;576397;249;24172;-79
2024/01/18 10:00:08;;;;;;;3.47;2.70;;;1.20;99.90;0.00;97908;;;;565624;254;24221;-76
2024/01/18 10:02:36;;;;;;;2.37;1.03;;;1.20;99.90;-0.10;97905;;;;564451;249;24091;-79
2024/01/18 10:05:04;;;;;;;2.40;2.20;;;1.10;99.90;0.00;97917;;;;553178;255;24106;-79
2024/01/18 10:07:32;;;;;;;1.83;1.73;;;1.10;99.90;-0.10;97910;;;;561640;250;27349;-79
2024/01/18 10:10:00;;;;;;;3.70;1.50;;;1.10;99.90;-0.30;97900;;;;567181;253;24176;-79
2024/01/18 10:12:36;;;;;;;0.97;0.77;;;1.00;99.90;-0.40;97916;;;;560771;252;24127;-81
2024/01/18 10:15:02;;;;;;;2.87;2.67;;;0.80;99.90;-0.60;97913;;;;553291;254;24164;-77
2024/01/18 10:17:30;;;;;;;2.13;1.87;;;0.60;99.90;-0.70;97916;;;;552166;255;24131;-80
2024/01/18 10:19:58;;;;;;;2.13;1.27;;;0.30;99.90;-0.70;97914;;;;563719;249;24093;-78
2024/01/18 10:22:30;;;;;;;0.70;0.60;;;0.30;99.90;-0.80;97910;;;;566556;249;24148;-79
2024/01/18 10:24:55;;;;;;;3.80;2.00;;;0.30;99.90;-0.80;97910;;;;566095;249;24140;-78
2024/01/18 10:27:23;;;;;;;1.53;1.43;;;0.30;99.90;-0.70;97911;;;;563192;249;24154;-78
2024/01/18 10:29:51;;;;;;;3.53;2.00;;;0.30;99.90;-0.60;97913;;;;564396;249;24109;-79
2024/01/18 10:32:18;;;;;;;3.53;2.23;;;0.40;99.90;-0.60;97918;;;;563449;249;25132;-77
2024/01/18 10:34:47;;;;;;;3.27;2.10;;;0.50;99.90;-0.50;97914;;;;564807;249;24144;-78
2024/01/18 10:37:17;;;;;;;2.20;2.10;;;0.50;99.90;-0.50;97928;;;;565234;249;24108;-77
2024/01/18 10:39:46;;;;;;;2.50;2.23;;;0.50;99.90;-0.60;97924;;;;564589;249;24114;-78
2024/01/18 10:42:13;;;;;;;0.90;0.90;;;0.50;99.90;-0.60;97924;;;;563400;249;24114;-78
2024/01/18 10:44:46;;;;;;;2.60;2.27;;;0.40;99.90;-0.70;97921;;;;566156;249;24144;-78
2024/01/18 10:47:18;;;;;;;3.73;2.00;;;0.40;99.90;-0.70;97933;;;;564741;249;24139;-78
2024/01/18 10:49:42;;;;;;;1.73;1.30;;;0.30;99.90;-0.80;97922;;;;566567;247;24160;-79
2024/01/18 10:52:10;;;;;;;0.93;0.93;;;0.30;99.90;-0.80;97932;;;;567926;249;24087;-78
2024/01/18 10:54:42;;;;;;;1.80;1.70;;;0.10;99.90;-0.80;97941;;;;567142;249;24095;-76
2024/01/18 10:57:07;;;;;;;1.17;1.07;;;0.10;99.90;-0.90;97938;;;;567231;249;24537;-77
2024/01/18 10:59:35;;;;;;;1.30;1.20;;;0.10;99.90;-0.90;97940;;;;565428;249;24100;-77
2024/01/18 11:02:04;;;;;;;3.20;3.00;;;0.10;99.90;-0.90;97942;;;;565411;249;25212;-77
2024/01/18 11:04:32;;;;;;;3.87;1.53;;;0.00;99.90;-1.00;97935;;;;575691;249;24096;-78
2024/01/18 11:07:00;;;;;;;9.43;5.93;;;0.00;99.90;-0.90;97942;;;;560531;249;35271;-77
2024/01/18 11:09:31;;;;;;;5.87;3.40;;;0.10;99.90;-1.00;97932;;;;566942;249;24088;-78
2024/01/18 11:11:59;;;;;;;1.80;1.70;;;0.00;99.90;-1.00;97950;;;;564054;249;24085;-78
2024/01/18 11:14:28;;;;;;;2.57;1.40;;;-0.20;99.90;-1.10;97947;;;;566977;249;24119;-79
2024/01/18 11:16:55;;;;;;;1.63;1.53;;;-0.20;99.90;-1.10;97948;;;;563604;249;24155;-78